sensor_id;sensor_type;location;lat;lon;timestamp;temperature;humidity
67358;HTU21D;54240;51.096;5.878;2023-11-19T00:01:23;13.82;-6.00
67358;HTU21D;54240;51.096;5.878;2023-11-19T00:03:49;13.78;-6.00
67358;HTU21D;54240;51.096;5.878;2023-11-19T00:06:15;13.67;-6.00
67358;HTU21D;54240;51.096;5.878;2023-11-19T00:08:42;13.63;-6.00
67358;HTU21D;54240;51.096;5.878;2023-11-19T00:11:09;13.74;-6.00
67358;HTU21D;54240;51.096;5.878;2023-11-19T00:13:35;13.85;-6.00
67358;HTU21D;54240;51.096;5.878;2023-11-19T00:16:01;13.68;-6.00
67358;HTU21D;54240;51.096;5.878;2023-11-19T00:18:26;13.66;-6.00
67358;HTU21D;54240;51.096;5.878;2023-11-19T00:20:52;13.70;-6.00
67358;HTU21D;54240;51.096;5.878;2023-11-19T00:23:18;13.85;-6.00
67358;HTU21D;54240;51.096;5.878;2023-11-19T00:25:45;13.76;-6.00
67358;HTU21D;54240;51.096;5.878;2023-11-19T00:28:13;13.58;-6.00
67358;HTU21D;54240;51.096;5.878;2023-11-19T00:30:39;13.65;-6.00
67358;HTU21D;54240;51.096;5.878;2023-11-19T00:33:06;13.55;-6.00
67358;HTU21D;54240;51.096;5.878;2023-11-19T00:35:32;13.61;-6.00
67358;HTU21D;54240;51.096;5.878;2023-11-19T00:37:58;13.69;-6.00
67358;HTU21D;54240;51.096;5.878;2023-11-19T00:40:24;13.83;-6.00
67358;HTU21D;54240;51.096;5.878;2023-11-19T00:42:50;14.03;-6.00
67358;HTU21D;54240;51.096;5.878;2023-11-19T00:45:16;14.17;-6.00
67358;HTU21D;54240;51.096;5.878;2023-11-19T00:47:42;14.21;-6.00
67358;HTU21D;54240;51.096;5.878;2023-11-19T00:50:08;14.36;-6.00
67358;HTU21D;54240;51.096;5.878;2023-11-19T00:52:38;14.08;-6.00
67358;HTU21D;54240;51.096;5.878;2023-11-19T00:55:05;13.98;-6.00
67358;HTU21D;54240;51.096;5.878;2023-11-19T00:57:31;14.10;-6.00
67358;HTU21D;54240;51.096;5.878;2023-11-19T01:00:01;14.07;-6.00
67358;HTU21D;54240;51.096;5.878;2023-11-19T01:02:26;14.17;-6.00
67358;HTU21D;54240;51.096;5.878;2023-11-19T01:04:52;14.13;-6.00
67358;HTU21D;54240;51.096;5.878;2023-11-19T01:07:18;14.06;-6.00
67358;HTU21D;54240;51.096;5.878;2023-11-19T01:09:44;14.17;-6.00
67358;HTU21D;54240;51.096;5.878;2023-11-19T01:12:10;14.13;-6.00
67358;HTU21D;54240;51.096;5.878;2023-11-19T01:14:36;14.06;-6.00
67358;HTU21D;54240;51.096;5.878;2023-11-19T01:17:02;14.09;-6.00
67358;HTU21D;54240;51.096;5.878;2023-11-19T01:19:29;14.12;-6.00
67358;HTU21D;54240;51.096;5.878;2023-11-19T01:21:55;14.11;-6.00
67358;HTU21D;54240;51.096;5.878;2023-11-19T01:24:22;14.29;-6.00
67358;HTU21D;54240;51.096;5.878;2023-11-19T01:26:47;14.40;-6.00
67358;HTU21D;54240;51.096;5.878;2023-11-19T01:29:14;14.47;-6.00
67358;HTU21D;54240;51.096;5.878;2023-11-19T01:31:42;14.54;-6.00
67358;HTU21D;54240;51.096;5.878;2023-11-19T01:34:08;14.32;-6.00
67358;HTU21D;54240;51.096;5.878;2023-11-19T01:36:35;14.47;-6.00
67358;HTU21D;54240;51.096;5.878;2023-11-19T01:39:01;14.47;-6.00
67358;HTU21D;54240;51.096;5.878;2023-11-19T01:41:27;14.47;-6.00
67358;HTU21D;54240;51.096;5.878;2023-11-19T01:43:53;14.50;-6.00
67358;HTU21D;54240;51.096;5.878;2023-11-19T01:46:20;14.50;-6.00
67358;HTU21D;54240;51.096;5.878;2023-11-19T01:48:47;14.43;-6.00
67358;HTU21D;54240;51.096;5.878;2023-11-19T01:51:13;14.55;-6.00
67358;HTU21D;54240;51.096;5.878;2023-11-19T01:53:43;14.53;-6.00
67358;HTU21D;54240;51.096;5.878;2023-11-19T01:56:13;14.50;-6.00
67358;HTU21D;54240;51.096;5.878;2023-11-19T01:58:42;14.44;-6.00
67358;HTU21D;54240;51.096;5.878;2023-11-19T02:01:09;14.50;-6.00
67358;HTU21D;54240;51.096;5.878;2023-11-19T02:03:37;14.52;-6.00
67358;HTU21D;54240;51.096;5.878;2023-11-19T02:06:04;14.47;-6.00
67358;HTU21D;54240;51.096;5.878;2023-11-19T02:08:30;14.49;-6.00
67358;HTU21D;54240;51.096;5.878;2023-11-19T02:10:56;14.63;-6.00
67358;HTU21D;54240;51.096;5.878;2023-11-19T02:13:23;14.66;-6.00
67358;HTU21D;54240;51.096;5.878;2023-11-19T02:15:50;14.50;-6.00
67358;HTU21D;54240;51.096;5.878;2023-11-19T02:18:22;14.47;-6.00
67358;HTU21D;54240;51.096;5.878;2023-11-19T02:20:51;14.29;-6.00
67358;HTU21D;54240;51.096;5.878;2023-11-19T02:23:18;14.39;-6.00
67358;HTU21D;54240;51.096;5.878;2023-11-19T02:26:12;14.37;-6.00
67358;HTU21D;54240;51.096;5.878;2023-11-19T02:28:42;14.54;-6.00
67358;HTU21D;54240;51.096;5.878;2023-11-19T02:31:09;14.56;-6.00
67358;HTU21D;54240;51.096;5.878;2023-11-19T02:33:38;14.45;-6.00
67358;HTU21D;54240;51.096;5.878;2023-11-19T02:36:05;14.41;-6.00
67358;HTU21D;54240;51.096;5.878;2023-11-19T02:38:35;14.38;-6.00
67358;HTU21D;54240;51.096;5.878;2023-11-19T02:41:05;14.53;-6.00
67358;HTU21D;54240;51.096;5.878;2023-11-19T02:43:33;14.55;-6.00
67358;HTU21D;54240;51.096;5.878;2023-11-19T02:46:03;14.35;-6.00
67358;HTU21D;54240;51.096;5.878;2023-11-19T02:48:35;14.51;-6.00
67358;HTU21D;54240;51.096;5.878;2023-11-19T02:51:04;14.45;-6.00
67358;HTU21D;54240;51.096;5.878;2023-11-19T02:53:31;14.29;-6.00
67358;HTU21D;54240;51.096;5.878;2023-11-19T02:55:57;14.26;-6.00
67358;HTU21D;54240;51.096;5.878;2023-11-19T02:58:29;14.29;-6.00
67358;HTU21D;54240;51.096;5.878;2023-11-19T03:00:56;14.26;-6.00
67358;HTU21D;54240;51.096;5.878;2023-11-19T03:03:27;14.38;-6.00
67358;HTU21D;54240;51.096;5.878;2023-11-19T03:06:07;14.26;-6.00
67358;HTU21D;54240;51.096;5.878;2023-11-19T03:08:35;14.33;-6.00
67358;HTU21D;54240;51.096;5.878;2023-11-19T03:11:02;14.24;-6.00
67358;HTU21D;54240;51.096;5.878;2023-11-19T03:13:27;14.44;-6.00
67358;HTU21D;54240;51.096;5.878;2023-11-19T03:15:53;14.47;-6.00
67358;HTU21D;54240;51.096;5.878;2023-11-19T03:18:20;14.36;-6.00
67358;HTU21D;54240;51.096;5.878;2023-11-19T03:20:46;14.29;-6.00
67358;HTU21D;54240;51.096;5.878;2023-11-19T03:23:13;14.23;-6.00
67358;HTU21D;54240;51.096;5.878;2023-11-19T03:25:38;14.37;-6.00
67358;HTU21D;54240;51.096;5.878;2023-11-19T03:28:04;14.34;-6.00
67358;HTU21D;54240;51.096;5.878;2023-11-19T03:30:31;14.14;-6.00
67358;HTU21D;54240;51.096;5.878;2023-11-19T03:32:57;14.18;-6.00
67358;HTU21D;54240;51.096;5.878;2023-11-19T03:35:24;14.11;-6.00
67358;HTU21D;54240;51.096;5.878;2023-11-19T03:37:50;14.20;-6.00
67358;HTU21D;54240;51.096;5.878;2023-11-19T03:40:17;14.06;-6.00
67358;HTU21D;54240;51.096;5.878;2023-11-19T03:42:47;13.99;-6.00
67358;HTU21D;54240;51.096;5.878;2023-11-19T03:45:13;13.97;-6.00
67358;HTU21D;54240;51.096;5.878;2023-11-19T03:47:40;13.91;-6.00
67358;HTU21D;54240;51.096;5.878;2023-11-19T03:50:06;13.86;-6.00
67358;HTU21D;54240;51.096;5.878;2023-11-19T03:52:34;13.86;-6.00
67358;HTU21D;54240;51.096;5.878;2023-11-19T03:54:59;13.98;-6.00
67358;HTU21D;54240;51.096;5.878;2023-11-19T03:57:27;13.93;-6.00
67358;HTU21D;54240;51.096;5.878;2023-11-19T03:59:53;13.93;-6.00
67358;HTU21D;54240;51.096;5.878;2023-11-19T04:02:21;13.70;-6.00
67358;HTU21D;54240;51.096;5.878;2023-11-19T04:04:47;13.91;-6.00
67358;HTU21D;54240;51.096;5.878;2023-11-19T04:07:14;14.04;-6.00
67358;HTU21D;54240;51.096;5.878;2023-11-19T04:09:41;14.13;-6.00
67358;HTU21D;54240;51.096;5.878;2023-11-19T04:12:07;14.19;-6.00
67358;HTU21D;54240;51.096;5.878;2023-11-19T04:14:33;14.10;-6.00
67358;HTU21D;54240;51.096;5.878;2023-11-19T04:16:59;13.96;-6.00
67358;HTU21D;54240;51.096;5.878;2023-11-19T04:19:25;13.96;-6.00
67358;HTU21D;54240;51.096;5.878;2023-11-19T04:21:51;13.94;-6.00
67358;HTU21D;54240;51.096;5.878;2023-11-19T04:24:17;14.01;-6.00
67358;HTU21D;54240;51.096;5.878;2023-11-19T04:26:45;13.90;-6.00
67358;HTU21D;54240;51.096;5.878;2023-11-19T04:29:13;13.96;-6.00
67358;HTU21D;54240;51.096;5.878;2023-11-19T04:31:41;14.09;-6.00
67358;HTU21D;54240;51.096;5.878;2023-11-19T04:34:07;13.93;-6.00
67358;HTU21D;54240;51.096;5.878;2023-11-19T04:36:33;13.85;-6.00
67358;HTU21D;54240;51.096;5.878;2023-11-19T04:39:00;13.82;-6.00
67358;HTU21D;54240;51.096;5.878;2023-11-19T04:41:27;13.75;-6.00
67358;HTU21D;54240;51.096;5.878;2023-11-19T04:43:53;13.92;-6.00
67358;HTU21D;54240;51.096;5.878;2023-11-19T04:46:19;13.85;-6.00
67358;HTU21D;54240;51.096;5.878;2023-11-19T04:48:45;13.98;-6.00
67358;HTU21D;54240;51.096;5.878;2023-11-19T04:51:11;13.85;-6.00
67358;HTU21D;54240;51.096;5.878;2023-11-19T04:53:37;13.96;-6.00
67358;HTU21D;54240;51.096;5.878;2023-11-19T04:56:10;14.01;-6.00
67358;HTU21D;54240;51.096;5.878;2023-11-19T04:58:36;13.92;-6.00
67358;HTU21D;54240;51.096;5.878;2023-11-19T05:01:04;14.03;-6.00
67358;HTU21D;54240;51.096;5.878;2023-11-19T05:03:30;13.92;-6.00
67358;HTU21D;54240;51.096;5.878;2023-11-19T05:05:57;13.85;-6.00
67358;HTU21D;54240;51.096;5.878;2023-11-19T05:08:23;13.80;-6.00
67358;HTU21D;54240;51.096;5.878;2023-11-19T05:10:49;13.97;-6.00
67358;HTU21D;54240;51.096;5.878;2023-11-19T05:13:15;13.92;-6.00
67358;HTU21D;54240;51.096;5.878;2023-11-19T05:15:41;13.74;-6.00
67358;HTU21D;54240;51.096;5.878;2023-11-19T05:18:07;13.71;-6.00
67358;HTU21D;54240;51.096;5.878;2023-11-19T05:20:32;13.61;-6.00
67358;HTU21D;54240;51.096;5.878;2023-11-19T05:22:58;13.79;-6.00
67358;HTU21D;54240;51.096;5.878;2023-11-19T05:25:26;13.73;-6.00
67358;HTU21D;54240;51.096;5.878;2023-11-19T05:27:53;13.63;-6.00
67358;HTU21D;54240;51.096;5.878;2023-11-19T05:30:19;13.54;-6.00
67358;HTU21D;54240;51.096;5.878;2023-11-19T05:32:45;13.64;-6.00
67358;HTU21D;54240;51.096;5.878;2023-11-19T05:35:12;13.62;-6.00
67358;HTU21D;54240;51.096;5.878;2023-11-19T05:37:37;13.58;-6.00
67358;HTU21D;54240;51.096;5.878;2023-11-19T05:40:05;13.52;-6.00
67358;HTU21D;54240;51.096;5.878;2023-11-19T05:42:40;13.55;-6.00
67358;HTU21D;54240;51.096;5.878;2023-11-19T05:45:07;13.65;-6.00
67358;HTU21D;54240;51.096;5.878;2023-11-19T05:47:34;13.37;-6.00
67358;HTU21D;54240;51.096;5.878;2023-11-19T05:50:00;13.49;-6.00
67358;HTU21D;54240;51.096;5.878;2023-11-19T05:52:26;13.44;-6.00
67358;HTU21D;54240;51.096;5.878;2023-11-19T05:54:53;13.26;-6.00
67358;HTU21D;54240;51.096;5.878;2023-11-19T05:57:19;13.31;-6.00
67358;HTU21D;54240;51.096;5.878;2023-11-19T05:59:51;13.52;-6.00
67358;HTU21D;54240;51.096;5.878;2023-11-19T06:02:17;13.47;-6.00
67358;HTU21D;54240;51.096;5.878;2023-11-19T06:04:43;13.43;-6.00
67358;HTU21D;54240;51.096;5.878;2023-11-19T06:07:10;13.21;-6.00
67358;HTU21D;54240;51.096;5.878;2023-11-19T06:09:36;13.06;-6.00
67358;HTU21D;54240;51.096;5.878;2023-11-19T06:12:02;13.23;-6.00
67358;HTU21D;54240;51.096;5.878;2023-11-19T06:14:28;13.36;-6.00
67358;HTU21D;54240;51.096;5.878;2023-11-19T06:16:53;13.23;-6.00
67358;HTU21D;54240;51.096;5.878;2023-11-19T06:19:19;13.29;-6.00
67358;HTU21D;54240;51.096;5.878;2023-11-19T06:21:45;13.19;-6.00
67358;HTU21D;54240;51.096;5.878;2023-11-19T06:24:11;13.37;-6.00
67358;HTU21D;54240;51.096;5.878;2023-11-19T06:26:38;13.23;-6.00
67358;HTU21D;54240;51.096;5.878;2023-11-19T06:29:04;13.14;-6.00
67358;HTU21D;54240;51.096;5.878;2023-11-19T06:31:30;12.99;-6.00
67358;HTU21D;54240;51.096;5.878;2023-11-19T06:33:56;13.02;-6.00
67358;HTU21D;54240;51.096;5.878;2023-11-19T06:36:22;13.15;-6.00
67358;HTU21D;54240;51.096;5.878;2023-11-19T06:38:48;12.92;-6.00
67358;HTU21D;54240;51.096;5.878;2023-11-19T06:41:14;12.95;-6.00
67358;HTU21D;54240;51.096;5.878;2023-11-19T06:43:40;13.01;-6.00
67358;HTU21D;54240;51.096;5.878;2023-11-19T06:46:15;12.96;-6.00
67358;HTU21D;54240;51.096;5.878;2023-11-19T06:48:40;12.81;-6.00
67358;HTU21D;54240;51.096;5.878;2023-11-19T06:51:08;12.85;-6.00
67358;HTU21D;54240;51.096;5.878;2023-11-19T06:53:34;12.95;-6.00
67358;HTU21D;54240;51.096;5.878;2023-11-19T06:56:00;12.96;-6.00
67358;HTU21D;54240;51.096;5.878;2023-11-19T06:58:26;12.84;-6.00
67358;HTU21D;54240;51.096;5.878;2023-11-19T07:00:52;12.94;-6.00
67358;HTU21D;54240;51.096;5.878;2023-11-19T07:03:18;13.02;-6.00
67358;HTU21D;54240;51.096;5.878;2023-11-19T07:05:44;13.08;-6.00
67358;HTU21D;54240;51.096;5.878;2023-11-19T07:08:10;12.90;-6.00
67358;HTU21D;54240;51.096;5.878;2023-11-19T07:10:36;12.95;-6.00
67358;HTU21D;54240;51.096;5.878;2023-11-19T07:13:02;12.94;-6.00
67358;HTU21D;54240;51.096;5.878;2023-11-19T07:15:28;12.92;-6.00
67358;HTU21D;54240;51.096;5.878;2023-11-19T07:17:54;12.75;-6.00
67358;HTU21D;54240;51.096;5.878;2023-11-19T07:20:20;12.87;-6.00
67358;HTU21D;54240;51.096;5.878;2023-11-19T07:22:46;12.77;-6.00
67358;HTU21D;54240;51.096;5.878;2023-11-19T07:25:15;12.80;-6.00
67358;HTU21D;54240;51.096;5.878;2023-11-19T07:27:41;13.01;-6.00
67358;HTU21D;54240;51.096;5.878;2023-11-19T07:30:07;12.91;-6.00
67358;HTU21D;54240;51.096;5.878;2023-11-19T07:32:33;13.06;-6.00
67358;HTU21D;54240;51.096;5.878;2023-11-19T07:34:59;12.88;-6.00
67358;HTU21D;54240;51.096;5.878;2023-11-19T07:37:25;12.96;-6.00
67358;HTU21D;54240;51.096;5.878;2023-11-19T07:39:51;12.92;-6.00
67358;HTU21D;54240;51.096;5.878;2023-11-19T07:42:17;13.22;-6.00
67358;HTU21D;54240;51.096;5.878;2023-11-19T07:44:43;13.15;-6.00
67358;HTU21D;54240;51.096;5.878;2023-11-19T07:47:10;13.08;-6.00
67358;HTU21D;54240;51.096;5.878;2023-11-19T07:49:36;13.10;-6.00
67358;HTU21D;54240;51.096;5.878;2023-11-19T07:52:02;12.99;-6.00
67358;HTU21D;54240;51.096;5.878;2023-11-19T07:54:28;12.94;-6.00
67358;HTU21D;54240;51.096;5.878;2023-11-19T07:56:54;13.33;-6.00
67358;HTU21D;54240;51.096;5.878;2023-11-19T07:59:21;13.23;-6.00
67358;HTU21D;54240;51.096;5.878;2023-11-19T08:01:47;13.08;-6.00
67358;HTU21D;54240;51.096;5.878;2023-11-19T08:04:13;13.16;-6.00
67358;HTU21D;54240;51.096;5.878;2023-11-19T08:06:40;13.35;-6.00
67358;HTU21D;54240;51.096;5.878;2023-11-19T08:09:06;13.26;-6.00
67358;HTU21D;54240;51.096;5.878;2023-11-19T08:11:33;13.46;-6.00
67358;HTU21D;54240;51.096;5.878;2023-11-19T08:13:59;13.69;-6.00
67358;HTU21D;54240;51.096;5.878;2023-11-19T08:16:25;13.56;-6.00
67358;HTU21D;54240;51.096;5.878;2023-11-19T08:18:50;13.59;-6.00
67358;HTU21D;54240;51.096;5.878;2023-11-19T08:21:16;13.92;-6.00
67358;HTU21D;54240;51.096;5.878;2023-11-19T08:23:42;14.07;-6.00
67358;HTU21D;54240;51.096;5.878;2023-11-19T08:26:08;13.91;-6.00
67358;HTU21D;54240;51.096;5.878;2023-11-19T08:28:34;13.86;-6.00
67358;HTU21D;54240;51.096;5.878;2023-11-19T08:31:00;13.97;-6.00
67358;HTU21D;54240;51.096;5.878;2023-11-19T08:33:26;14.13;-6.00
67358;HTU21D;54240;51.096;5.878;2023-11-19T08:35:52;14.40;-6.00
67358;HTU21D;54240;51.096;5.878;2023-11-19T08:38:18;14.04;-6.00
67358;HTU21D;54240;51.096;5.878;2023-11-19T08:40:44;14.10;-6.00
67358;HTU21D;54240;51.096;5.878;2023-11-19T08:43:10;14.12;-6.00
67358;HTU21D;54240;51.096;5.878;2023-11-19T08:45:36;14.51;-6.00
67358;HTU21D;54240;51.096;5.878;2023-11-19T08:48:02;14.36;-6.00
67358;HTU21D;54240;51.096;5.878;2023-11-19T08:50:28;14.43;-6.00
67358;HTU21D;54240;51.096;5.878;2023-11-19T08:52:53;14.37;-6.00
67358;HTU21D;54240;51.096;5.878;2023-11-19T08:55:19;14.59;-6.00
67358;HTU21D;54240;51.096;5.878;2023-11-19T08:57:45;14.34;-6.00
67358;HTU21D;54240;51.096;5.878;2023-11-19T09:00:12;14.25;-6.00
67358;HTU21D;54240;51.096;5.878;2023-11-19T09:02:40;14.28;-6.00
67358;HTU21D;54240;51.096;5.878;2023-11-19T09:05:06;14.22;-6.00
67358;HTU21D;54240;51.096;5.878;2023-11-19T09:07:35;14.21;-6.00
67358;HTU21D;54240;51.096;5.878;2023-11-19T09:10:01;14.24;-6.00
67358;HTU21D;54240;51.096;5.878;2023-11-19T09:12:27;14.19;-6.00
67358;HTU21D;54240;51.096;5.878;2023-11-19T09:14:53;14.32;-6.00
67358;HTU21D;54240;51.096;5.878;2023-11-19T09:17:19;14.40;-6.00
67358;HTU21D;54240;51.096;5.878;2023-11-19T09:19:45;14.79;-6.00
67358;HTU21D;54240;51.096;5.878;2023-11-19T09:22:11;14.60;-6.00
67358;HTU21D;54240;51.096;5.878;2023-11-19T09:24:37;14.86;-6.00
67358;HTU21D;54240;51.096;5.878;2023-11-19T09:27:04;14.80;-6.00
67358;HTU21D;54240;51.096;5.878;2023-11-19T09:29:33;14.59;-6.00
67358;HTU21D;54240;51.096;5.878;2023-11-19T09:31:59;14.88;-6.00
67358;HTU21D;54240;51.096;5.878;2023-11-19T09:34:26;15.02;-6.00
67358;HTU21D;54240;51.096;5.878;2023-11-19T09:36:51;14.71;-6.00
67358;HTU21D;54240;51.096;5.878;2023-11-19T09:39:17;14.67;-6.00
67358;HTU21D;54240;51.096;5.878;2023-11-19T09:41:44;14.49;-6.00
67358;HTU21D;54240;51.096;5.878;2023-11-19T09:44:11;14.39;-6.00
67358;HTU21D;54240;51.096;5.878;2023-11-19T09:46:38;14.69;-6.00
67358;HTU21D;54240;51.096;5.878;2023-11-19T09:49:08;15.06;-6.00
67358;HTU21D;54240;51.096;5.878;2023-11-19T09:51:36;15.03;-6.00
67358;HTU21D;54240;51.096;5.878;2023-11-19T09:54:02;15.11;-6.00
67358;HTU21D;54240;51.096;5.878;2023-11-19T09:56:29;15.06;-6.00
67358;HTU21D;54240;51.096;5.878;2023-11-19T09:58:59;15.26;-6.00
67358;HTU21D;54240;51.096;5.878;2023-11-19T10:01:25;15.40;-6.00
67358;HTU21D;54240;51.096;5.878;2023-11-19T10:03:55;14.93;-6.00
67358;HTU21D;54240;51.096;5.878;2023-11-19T10:06:21;14.74;-6.00
67358;HTU21D;54240;51.096;5.878;2023-11-19T10:08:48;14.86;-6.00
67358;HTU21D;54240;51.096;5.878;2023-11-19T10:11:16;14.92;-6.00
67358;HTU21D;54240;51.096;5.878;2023-11-19T10:13:42;14.97;-6.00
67358;HTU21D;54240;51.096;5.878;2023-11-19T10:16:14;14.92;-6.00
67358;HTU21D;54240;51.096;5.878;2023-11-19T10:18:48;14.86;-6.00
67358;HTU21D;54240;51.096;5.878;2023-11-19T10:21:14;15.04;-6.00
67358;HTU21D;54240;51.096;5.878;2023-11-19T10:23:55;15.02;-6.00
67358;HTU21D;54240;51.096;5.878;2023-11-19T10:26:27;14.98;-6.00
67358;HTU21D;54240;51.096;5.878;2023-11-19T10:28:53;14.96;-6.00
67358;HTU21D;54240;51.096;5.878;2023-11-19T10:31:20;15.25;-6.00
67358;HTU21D;54240;51.096;5.878;2023-11-19T10:33:52;15.63;-6.00
67358;HTU21D;54240;51.096;5.878;2023-11-19T10:36:18;15.86;-6.00
67358;HTU21D;54240;51.096;5.878;2023-11-19T10:38:56;16.05;-6.00
67358;HTU21D;54240;51.096;5.878;2023-11-19T10:41:32;16.15;-6.00
67358;HTU21D;54240;51.096;5.878;2023-11-19T10:43:58;15.97;-6.00
67358;HTU21D;54240;51.096;5.878;2023-11-19T10:46:39;16.37;-6.00
67358;HTU21D;54240;51.096;5.878;2023-11-19T10:49:06;16.60;-6.00
67358;HTU21D;54240;51.096;5.878;2023-11-19T10:51:32;17.00;-6.00
67358;HTU21D;54240;51.096;5.878;2023-11-19T10:54:05;16.93;-6.00
67358;HTU21D;54240;51.096;5.878;2023-11-19T10:56:33;16.28;-6.00
67358;HTU21D;54240;51.096;5.878;2023-11-19T10:59:00;15.81;-6.00
67358;HTU21D;54240;51.096;5.878;2023-11-19T11:01:34;15.65;-6.00
67358;HTU21D;54240;51.096;5.878;2023-11-19T11:04:13;15.30;-6.00
67358;HTU21D;54240;51.096;5.878;2023-11-19T11:06:43;15.78;-6.00
67358;HTU21D;54240;51.096;5.878;2023-11-19T11:09:11;16.10;-6.00
67358;HTU21D;54240;51.096;5.878;2023-11-19T11:11:41;15.99;-6.00
67358;HTU21D;54240;51.096;5.878;2023-11-19T11:14:12;15.67;-6.00
67358;HTU21D;54240;51.096;5.878;2023-11-19T11:16:42;15.18;-6.00
67358;HTU21D;54240;51.096;5.878;2023-11-19T11:19:10;15.21;-6.00
67358;HTU21D;54240;51.096;5.878;2023-11-19T11:21:40;15.00;-6.00
67358;HTU21D;54240;51.096;5.878;2023-11-19T11:24:53;15.13;-6.00
67358;HTU21D;54240;51.096;5.878;2023-11-19T11:30:31;15.86;-6.00
67358;HTU21D;54240;51.096;5.878;2023-11-19T11:36:22;15.59;-6.00
67358;HTU21D;54240;51.096;5.878;2023-11-19T11:38:49;15.59;-6.00
67358;HTU21D;54240;51.096;5.878;2023-11-19T11:41:17;15.43;-6.00
67358;HTU21D;54240;51.096;5.878;2023-11-19T11:43:51;15.23;-6.00
67358;HTU21D;54240;51.096;5.878;2023-11-19T11:49:03;15.17;-6.00
67358;HTU21D;54240;51.096;5.878;2023-11-19T11:54:11;14.94;-6.00
67358;HTU21D;54240;51.096;5.878;2023-11-19T11:56:37;14.95;-6.00
67358;HTU21D;54240;51.096;5.878;2023-11-19T11:59:08;14.81;-6.00
67358;HTU21D;54240;51.096;5.878;2023-11-19T12:01:35;14.73;-6.00
67358;HTU21D;54240;51.096;5.878;2023-11-19T12:04:01;14.44;-6.00
67358;HTU21D;54240;51.096;5.878;2023-11-19T12:06:27;14.59;-6.00
67358;HTU21D;54240;51.096;5.878;2023-11-19T12:08:59;14.82;-6.00
67358;HTU21D;54240;51.096;5.878;2023-11-19T12:11:25;14.74;-6.00
67358;HTU21D;54240;51.096;5.878;2023-11-19T12:13:55;14.67;-6.00
67358;HTU21D;54240;51.096;5.878;2023-11-19T12:16:23;15.04;-6.00
67358;HTU21D;54240;51.096;5.878;2023-11-19T12:18:49;14.87;-6.00
67358;HTU21D;54240;51.096;5.878;2023-11-19T12:21:28;15.34;-6.00
67358;HTU21D;54240;51.096;5.878;2023-11-19T12:23:58;15.62;-6.00
67358;HTU21D;54240;51.096;5.878;2023-11-19T12:26:38;15.39;-6.00
67358;HTU21D;54240;51.096;5.878;2023-11-19T12:29:06;15.46;-6.00
67358;HTU21D;54240;51.096;5.878;2023-11-19T12:31:33;15.43;-6.00
67358;HTU21D;54240;51.096;5.878;2023-11-19T12:34:05;15.26;-6.00
67358;HTU21D;54240;51.096;5.878;2023-11-19T12:36:31;15.16;-6.00
67358;HTU21D;54240;51.096;5.878;2023-11-19T12:38:57;15.27;-6.00
67358;HTU21D;54240;51.096;5.878;2023-11-19T12:41:23;15.27;-6.00
67358;HTU21D;54240;51.096;5.878;2023-11-19T12:43:49;15.30;-6.00
67358;HTU21D;54240;51.096;5.878;2023-11-19T12:46:20;15.31;-6.00
67358;HTU21D;54240;51.096;5.878;2023-11-19T12:48:47;15.32;-6.00
67358;HTU21D;54240;51.096;5.878;2023-11-19T12:51:13;15.29;-6.00
67358;HTU21D;54240;51.096;5.878;2023-11-19T12:53:52;15.51;-6.00
67358;HTU21D;54240;51.096;5.878;2023-11-19T12:56:24;15.58;-6.00
67358;HTU21D;54240;51.096;5.878;2023-11-19T12:58:50;15.68;-6.00
67358;HTU21D;54240;51.096;5.878;2023-11-19T13:01:20;15.67;-6.00
67358;HTU21D;54240;51.096;5.878;2023-11-19T13:03:47;15.63;-6.00
67358;HTU21D;54240;51.096;5.878;2023-11-19T13:06:14;15.37;-6.00
67358;HTU21D;54240;51.096;5.878;2023-11-19T13:08:48;15.33;-6.00
67358;HTU21D;54240;51.096;5.878;2023-11-19T13:11:30;15.31;-6.00
67358;HTU21D;54240;51.096;5.878;2023-11-19T13:13:57;15.17;-6.00
67358;HTU21D;54240;51.096;5.878;2023-11-19T13:16:24;15.27;-6.00
67358;HTU21D;54240;51.096;5.878;2023-11-19T13:18:51;15.03;-6.00
67358;HTU21D;54240;51.096;5.878;2023-11-19T13:21:17;14.78;-6.00
67358;HTU21D;54240;51.096;5.878;2023-11-19T13:23:43;14.66;-6.00
67358;HTU21D;54240;51.096;5.878;2023-11-19T13:26:10;14.67;-6.00
67358;HTU21D;54240;51.096;5.878;2023-11-19T13:28:37;14.83;-6.00
67358;HTU21D;54240;51.096;5.878;2023-11-19T13:31:03;14.23;-6.00
67358;HTU21D;54240;51.096;5.878;2023-11-19T13:33:29;14.09;-6.00
67358;HTU21D;54240;51.096;5.878;2023-11-19T13:35:56;14.10;-6.00
67358;HTU21D;54240;51.096;5.878;2023-11-19T13:38:22;13.98;-6.00
67358;HTU21D;54240;51.096;5.878;2023-11-19T13:40:51;14.01;-6.00
67358;HTU21D;54240;51.096;5.878;2023-11-19T13:43:18;14.00;-6.00
67358;HTU21D;54240;51.096;5.878;2023-11-19T13:45:43;13.81;-6.00
67358;HTU21D;54240;51.096;5.878;2023-11-19T13:48:09;13.65;-6.00
67358;HTU21D;54240;51.096;5.878;2023-11-19T13:50:35;13.66;-6.00
67358;HTU21D;54240;51.096;5.878;2023-11-19T13:53:01;13.99;-6.00
67358;HTU21D;54240;51.096;5.878;2023-11-19T13:55:27;13.82;-6.00
67358;HTU21D;54240;51.096;5.878;2023-11-19T13:57:53;14.22;-6.00
67358;HTU21D;54240;51.096;5.878;2023-11-19T14:00:18;14.32;-6.00
67358;HTU21D;54240;51.096;5.878;2023-11-19T14:02:46;14.37;-6.00
67358;HTU21D;54240;51.096;5.878;2023-11-19T14:05:15;14.49;-6.00
67358;HTU21D;54240;51.096;5.878;2023-11-19T14:07:43;14.40;-6.00
67358;HTU21D;54240;51.096;5.878;2023-11-19T14:10:10;14.22;-6.00
67358;HTU21D;54240;51.096;5.878;2023-11-19T14:12:39;14.33;-6.00
67358;HTU21D;54240;51.096;5.878;2023-11-19T14:15:06;14.39;-6.00
67358;HTU21D;54240;51.096;5.878;2023-11-19T14:17:33;14.56;-6.00
67358;HTU21D;54240;51.096;5.878;2023-11-19T14:20:01;14.57;-6.00
67358;HTU21D;54240;51.096;5.878;2023-11-19T14:22:26;13.97;-6.00
67358;HTU21D;54240;51.096;5.878;2023-11-19T14:24:52;13.79;-6.00
67358;HTU21D;54240;51.096;5.878;2023-11-19T14:27:19;13.44;-6.00
67358;HTU21D;54240;51.096;5.878;2023-11-19T14:29:45;13.22;-6.00
67358;HTU21D;54240;51.096;5.878;2023-11-19T14:32:11;13.05;-6.00
67358;HTU21D;54240;51.096;5.878;2023-11-19T14:34:37;13.01;-6.00
67358;HTU21D;54240;51.096;5.878;2023-11-19T14:37:03;12.99;-6.00
67358;HTU21D;54240;51.096;5.878;2023-11-19T14:39:29;12.90;-6.00
67358;HTU21D;54240;51.096;5.878;2023-11-19T14:41:59;12.90;-6.00
67358;HTU21D;54240;51.096;5.878;2023-11-19T14:44:30;12.86;-6.00
67358;HTU21D;54240;51.096;5.878;2023-11-19T14:46:56;12.89;-6.00
67358;HTU21D;54240;51.096;5.878;2023-11-19T14:49:21;12.85;-6.00
67358;HTU21D;54240;51.096;5.878;2023-11-19T14:51:50;12.92;-6.00
67358;HTU21D;54240;51.096;5.878;2023-11-19T14:54:16;12.75;-6.00
67358;HTU21D;54240;51.096;5.878;2023-11-19T14:56:42;12.76;-6.00
67358;HTU21D;54240;51.096;5.878;2023-11-19T14:59:08;13.00;-6.00
67358;HTU21D;54240;51.096;5.878;2023-11-19T15:01:33;12.96;-6.00
67358;HTU21D;54240;51.096;5.878;2023-11-19T15:03:59;13.20;-6.00
67358;HTU21D;54240;51.096;5.878;2023-11-19T15:06:25;13.31;-6.00
67358;HTU21D;54240;51.096;5.878;2023-11-19T15:08:53;13.30;-6.00
67358;HTU21D;54240;51.096;5.878;2023-11-19T15:11:18;13.18;-6.00
67358;HTU21D;54240;51.096;5.878;2023-11-19T15:13:44;13.32;-6.00
67358;HTU21D;54240;51.096;5.878;2023-11-19T15:16:10;13.25;-6.00
67358;HTU21D;54240;51.096;5.878;2023-11-19T15:18:37;13.48;-6.00
67358;HTU21D;54240;51.096;5.878;2023-11-19T15:21:04;13.66;-6.00
67358;HTU21D;54240;51.096;5.878;2023-11-19T15:23:29;13.56;-6.00
67358;HTU21D;54240;51.096;5.878;2023-11-19T15:25:55;13.54;-6.00
67358;HTU21D;54240;51.096;5.878;2023-11-19T15:28:21;13.54;-6.00